Au Sable Forks, New York
Current Conditions -  °F | °C
As of 8:36 AM on Sunday 23 Nov 2014 (Local Time) from KPBG Reporting Station
Overcast Overcast  
Wind Chill: 40°   Ceiling: 2900
Heat Index: 40°   Visibility: 10mi
Dew Point: 37°   Wind: 3mph
Humidity: 89%   Direction: 130°SE
Pressure: 30.04"   Gusts: NA
Location:  44.44°N, 73.67°W
Report Text: KPBG 231336Z AUTO 13003KT 10SM OVC029 04/03 A3004 RMK AO2 T00440028
Loading
Personal Weather Stations






























Interactive Weather Map New forecast layout! Learn more

10-Day Weather Forecast

Advertisements
Track Severe Weather on mobile